Time;durP1;ratioP1;P1;durP2;ratioP2;P2;SDS_P1;SDS_P2;PMS_P1;PMS_P2;Temp;Humidity;BMP_temperature;BMP_pressure;BME280_temperature;BME280_humidity;BME280_pressure;Samples;Min_cycle;Max_cycle;Signal;HPM_P1;HPM_P2
2022/03/22 00:01:48;;;;;;;19.25;10.13;;;5.10;99.90;;;4.53;100.00;98941.09;5006408;28;20073;-71
2022/03/22 00:04:17;;;;;;;15.95;10.00;;;5.20;99.90;;;4.59;100.00;98940.28;5003815;28;20050;-71
2022/03/22 00:06:44;;;;;;;15.55;9.00;;;5.20;99.90;;;4.52;100.00;98938.56;5001287;28;20145;-71
2022/03/22 00:09:11;;;;;;;17.20;9.43;;;5.20;99.90;;;4.60;100.00;98935.13;4997541;28;20084;-71
2022/03/22 00:11:38;;;;;;;15.57;9.32;;;5.30;99.90;;;4.54;100.00;98936.84;5003406;28;20129;-71
2022/03/22 00:14:08;;;;;;;17.35;10.18;;;5.20;99.90;;;4.34;100.00;98944.47;5018319;28;20054;-72
2022/03/22 00:16:36;;;;;;;15.32;10.35;;;5.20;99.90;;;4.22;100.00;98939.25;5018001;28;20050;-71
2022/03/22 00:19:24;;;;;;;18.75;10.07;;;5.00;99.90;;;4.03;100.00;98939.16;5002745;28;20129;-71
2022/03/22 00:21:51;;;;;;;15.52;9.60;;;4.80;99.90;;;4.02;100.00;98949.47;5000502;28;20132;-71
2022/03/22 00:24:18;;;;;;;19.83;10.63;;;4.80;99.90;;;3.96;100.00;98945.97;5002078;28;20449;-71
2022/03/22 00:26:45;;;;;;;18.38;10.30;;;4.70;99.90;;;4.01;100.00;98947.72;5002607;28;20116;-70
2022/03/22 00:29:12;;;;;;;20.30;10.10;;;4.70;99.90;;;4.03;100.00;98943.47;5004088;28;20499;-72
2022/03/22 00:31:39;;;;;;;19.75;10.65;;;4.80;99.90;;;4.01;100.00;98943.44;5003598;28;20064;-71
2022/03/22 00:34:06;;;;;;;20.25;9.63;;;4.70;99.90;;;4.05;100.00;98941.75;5003588;28;20123;-70
2022/03/22 00:36:34;;;;;;;18.20;10.30;;;4.70;99.90;;;4.20;100.00;98936.72;5002419;28;20058;-71
2022/03/22 00:39:02;;;;;;;16.92;10.60;;;4.80;99.90;;;4.18;100.00;98939.25;5002280;28;20050;-71
2022/03/22 00:41:29;;;;;;;16.70;10.48;;;4.80;99.90;;;4.23;100.00;98933.28;5000916;28;20213;-72
2022/03/22 00:43:57;;;;;;;15.93;9.77;;;4.90;99.90;;;4.12;100.00;98941.78;4998429;28;20107;-71
2022/03/22 00:46:24;;;;;;;19.30;10.98;;;4.90;99.90;;;3.93;100.00;98940.00;4993059;28;20481;-71
2022/03/22 00:48:51;;;;;;;18.42;10.50;;;4.80;99.90;;;3.91;100.00;98939.13;4998831;28;20054;-71
2022/03/22 00:51:20;;;;;;;19.98;10.82;;;4.70;99.90;;;3.87;100.00;98942.50;5001150;28;20077;-71
2022/03/22 00:53:47;;;;;;;17.98;10.35;;;4.60;99.90;;;3.84;100.00;98943.34;5000855;28;20138;-71
2022/03/22 00:56:14;;;;;;;19.08;11.60;;;4.60;99.90;;;3.89;100.00;98933.09;5001214;28;20167;-72
2022/03/22 00:58:41;;;;;;;21.15;11.45;;;4.60;99.90;;;3.84;100.00;98934.78;5005630;28;20176;-72
2022/03/22 01:01:08;;;;;;;22.08;10.77;;;4.60;99.90;;;3.84;100.00;98935.66;5003087;28;20057;-71
2022/03/22 01:03:36;;;;;;;17.75;11.93;;;4.60;99.90;;;3.91;100.00;98934.84;5020660;28;20046;-71
2022/03/22 01:06:04;;;;;;;18.60;12.27;;;4.60;99.90;;;3.80;100.00;98936.47;4998435;28;20050;-71
2022/03/22 01:08:31;;;;;;;17.88;11.02;;;4.50;99.90;;;3.79;100.00;98934.78;5008843;28;20045;-71
2022/03/22 01:10:58;;;;;;;18.58;12.05;;;4.60;99.90;;;3.58;100.00;98938.06;5003671;28;20054;-71
2022/03/22 01:13:30;;;;;;;19.77;10.65;;;4.40;99.90;;;3.46;100.00;98938.78;5003488;28;20569;-71
2022/03/22 01:15:58;;;;;;;18.75;11.05;;;4.40;99.90;;;3.39;100.00;98946.44;4999926;28;20050;-71
2022/03/22 01:18:25;;;;;;;20.20;10.15;;;4.20;99.90;;;3.40;100.00;98946.47;5003268;28;20101;-72
2022/03/22 01:20:53;;;;;;;16.33;10.95;;;4.10;99.90;;;3.43;100.00;98941.34;5003958;28;20054;-71
2022/03/22 01:23:20;;;;;;;18.70;10.77;;;4.00;99.90;;;3.44;100.00;98937.06;5001374;28;20097;-72
2022/03/22 01:25:48;;;;;;;16.08;10.27;;;4.00;99.90;;;3.45;100.00;98941.38;5002402;28;20042;-72
2022/03/22 01:28:16;;;;;;;18.65;11.45;;;4.00;99.90;;;3.20;100.00;98932.63;5002220;28;20050;-72
2022/03/22 01:30:43;;;;;;;19.83;10.85;;;4.00;99.90;;;3.12;100.00;98933.41;5002186;28;20046;-71
2022/03/22 01:33:14;;;;;;;17.70;10.85;;;3.90;99.90;;;3.18;100.00;98937.72;4997523;28;20065;-71
2022/03/22 01:35:42;;;;;;;18.52;11.50;;;3.80;99.90;;;3.20;100.00;98936.03;4993974;28;20050;-71
2022/03/22 01:38:10;;;;;;;17.83;11.20;;;3.70;99.90;;;3.09;100.00;98930.81;5002321;28;20108;-71
2022/03/22 01:40:38;;;;;;;15.95;11.20;;;3.70;99.90;;;2.93;100.00;98931.50;4998869;28;20054;-70
2022/03/22 01:43:06;;;;;;;19.55;12.35;;;3.70;99.90;;;2.92;100.00;98928.09;5007117;28;20058;-70
2022/03/22 01:45:33;;;;;;;17.60;10.65;;;3.60;99.90;;;3.02;100.00;98925.59;5001350;28;20184;-71
2022/03/22 01:48:04;;;;;;;17.25;10.77;;;3.60;99.90;;;2.90;100.00;98927.22;5017005;28;20037;-71
2022/03/22 01:50:32;;;;;;;16.80;10.88;;;3.50;99.90;;;2.70;100.00;98928.72;5006308;28;20049;-72
2022/03/22 01:53:00;;;;;;;16.50;11.30;;;3.50;99.90;;;2.68;100.00;98931.25;5007722;28;20081;-72
2022/03/22 01:55:28;;;;;;;17.95;11.38;;;3.40;99.90;;;2.71;100.00;98928.75;5009972;28;20120;-72
2022/03/22 01:57:56;;;;;;;21.20;11.50;;;3.40;99.90;;;2.64;100.00;98932.06;5018383;28;20062;-71
2022/03/22 02:00:23;;;;;;;18.63;11.48;;;3.40;99.90;;;2.59;100.00;98920.03;5004286;28;20052;-71
2022/03/22 02:08:27;;;;;;;20.03;12.23;;;3.10;99.90;;;2.21;100.00;98920.44;4998873;28;20489;-71
2022/03/22 02:10:58;;;;;;;19.70;12.68;;;3.00;99.90;;;2.21;100.00;98916.22;5000793;28;20104;-72
2022/03/22 02:13:30;;;;;;;15.90;11.20;;;2.90;99.90;;;2.19;100.00;98911.88;5005070;28;20053;-71
2022/03/22 02:16:01;;;;;;;24.13;13.13;;;2.90;99.90;;;2.20;100.00;98913.63;5002146;28;20057;-72
2022/03/22 02:18:29;;;;;;;24.10;14.35;;;2.90;99.90;;;2.27;100.00;98915.41;5001687;28;20573;-72
2022/03/22 02:20:59;;;;;;;23.02;14.13;;;2.90;99.90;;;2.28;100.00;98902.63;4999055;28;20054;-72
2022/03/22 02:23:48;;;;;;;22.13;13.25;;;2.90;99.90;;;2.28;100.00;98907.75;5002578;28;20073;-72
2022/03/22 02:26:17;;;;;;;19.45;13.07;;;3.00;99.90;;;2.32;100.00;98907.78;5006853;28;20515;-71
2022/03/22 02:28:45;;;;;;;21.95;12.57;;;3.00;99.90;;;2.16;100.00;98901.59;5015491;28;20141;-71
2022/03/22 02:31:15;;;;;;;21.33;13.07;;;2.90;99.90;;;2.02;100.00;98898.88;4998559;28;20571;-71
2022/03/22 02:33:43;;;;;;;23.85;14.68;;;2.80;99.90;;;2.01;100.00;98903.16;4998784;28;20484;-71
2022/03/22 02:36:10;;;;;;;20.77;12.70;;;2.80;99.90;;;1.92;100.00;98895.34;5008099;28;20137;-71
2022/03/22 02:38:38;;;;;;;20.75;13.27;;;2.70;99.90;;;1.76;100.00;98899.41;5000626;28;20133;-71
2022/03/22 02:41:06;;;;;;;23.55;14.30;;;2.70;99.90;;;1.76;100.00;98901.97;5006134;28;20494;-72
2022/03/22 02:43:33;;;;;;;23.35;15.00;;;2.60;99.90;;;1.76;100.00;98894.28;5004519;28;20109;-71
2022/03/22 02:46:00;;;;;;;23.98;14.90;;;2.50;99.90;;;1.73;100.00;98896.78;5004775;28;20049;-72
2022/03/22 02:48:27;;;;;;;25.08;14.88;;;2.50;99.90;;;1.77;100.00;98898.53;5000322;28;20511;-72
2022/03/22 02:50:54;;;;;;;20.45;12.88;;;2.50;99.90;;;1.81;100.00;98902.88;4999562;28;20337;-72
2022/03/22 02:53:22;;;;;;;24.70;14.35;;;2.50;99.90;;;1.75;100.00;98901.94;5002386;28;20147;-71
2022/03/22 02:55:49;;;;;;;18.73;11.68;;;2.50;99.90;;;1.83;100.00;98898.63;4999238;28;20050;-72
2022/03/22 02:58:16;;;;;;;20.15;13.40;;;2.50;99.90;;;1.70;100.00;98906.13;5002098;28;20043;-72
2022/03/22 03:00:43;;;;;;;23.50;13.45;;;2.50;99.90;;;1.79;100.00;98909.66;5002370;28;20431;-71
2022/03/22 03:03:10;;;;;;;21.80;13.27;;;2.40;99.90;;;1.81;100.00;98907.16;5005357;28;20050;-71
2022/03/22 03:05:38;;;;;;;24.15;13.52;;;2.40;99.90;;;1.56;100.00;98906.78;5003700;28;20058;-70
2022/03/22 03:08:06;;;;;;;19.83;13.32;;;2.40;99.90;;;1.55;100.00;98906.75;4999302;28;20132;-71
2022/03/22 03:10:33;;;;;;;27.90;14.73;;;2.30;99.90;;;1.57;100.00;98905.09;5004610;28;20434;-71
2022/03/22 03:13:04;;;;;;;21.98;13.25;;;2.30;99.90;;;1.66;100.00;98906.06;5008152;28;20112;-71
2022/03/22 03:15:31;;;;;;;20.90;13.82;;;2.30;99.90;;;1.59;100.00;98908.53;4991615;28;20108;-72
2022/03/22 03:17:59;;;;;;;21.48;12.38;;;2.30;99.90;;;1.51;100.00;98910.13;5002023;28;20050;-72
2022/03/22 03:20:26;;;;;;;20.27;12.73;;;2.30;99.90;;;1.57;100.00;98899.97;5001257;28;20142;-71
2022/03/22 03:22:54;;;;;;;19.45;12.77;;;2.20;99.90;;;1.52;100.00;98905.00;5006321;28;20049;-70
2022/03/22 03:25:21;;;;;;;18.55;12.23;;;2.10;99.90;;;1.42;100.00;98905.72;5000870;28;20099;-71
2022/03/22 03:27:49;;;;;;;21.25;13.80;;;2.10;99.90;;;1.48;100.00;98910.06;5001341;28;20080;-72
2022/03/22 03:30:17;;;;;;;18.27;12.18;;;2.10;99.90;;;1.37;100.00;98912.44;5003378;28;20061;-72
2022/03/22 03:32:44;;;;;;;22.77;13.48;;;2.10;99.90;;;1.34;100.00;98915.81;5006014;28;20062;-72
2022/03/22 03:35:11;;;;;;;18.98;12.45;;;2.00;99.90;;;1.37;100.00;98921.00;5002431;28;20100;-71
2022/03/22 03:37:42;;;;;;;19.20;11.63;;;2.10;99.90;;;1.28;100.00;98922.53;5005766;28;20128;-70
2022/03/22 03:40:10;;;;;;;19.02;12.82;;;2.00;99.90;;;1.25;100.00;98914.00;5007043;28;20500;-72
2022/03/22 03:42:42;;;;;;;21.95;14.60;;;2.00;99.90;;;1.20;100.00;98920.72;5005729;28;20042;-72
2022/03/22 03:47:58;;;;;;;22.38;13.90;;;1.90;99.90;;;1.13;100.00;98920.59;5000885;28;20054;-72
2022/03/22 03:50:26;;;;;;;23.42;15.68;;;1.90;99.90;;;1.04;100.00;98923.88;5024811;28;20045;-70
2022/03/22 03:52:53;;;;;;;24.33;14.02;;;1.80;99.90;;;1.12;100.00;98914.63;5006381;28;20449;-71
2022/03/22 03:55:20;;;;;;;20.98;13.25;;;1.80;99.90;;;1.03;100.00;98917.91;5005364;28;20077;-70
2022/03/22 03:57:49;;;;;;;21.45;13.82;;;1.80;99.90;;;1.04;100.00;98923.88;5005506;28;20046;-72
2022/03/22 04:00:16;;;;;;;22.52;14.65;;;1.70;99.90;;;0.99;100.00;98923.78;5004756;28;20579;-71
2022/03/22 04:02:43;;;;;;;22.83;14.10;;;1.80;99.90;;;1.00;100.00;98922.97;5006007;28;20049;-72
2022/03/22 04:05:12;;;;;;;20.08;14.23;;;1.70;99.90;;;0.94;100.00;98922.00;5021424;28;20057;-71
2022/03/22 04:07:57;;;;;;;23.60;15.65;;;1.70;99.90;;;0.85;100.00;98934.63;5001557;28;20077;-71
2022/03/22 04:10:26;;;;;;;25.45;15.80;;;1.70;99.90;;;0.89;100.00;98927.03;5001689;28;20111;-71
2022/03/22 04:12:53;;;;;;;24.33;15.13;;;1.60;99.90;;;0.99;100.00;98934.00;5003634;28;20054;-71
2022/03/22 04:15:20;;;;;;;23.65;15.30;;;;;;;0.81;100.00;98936.25;5003290;28;20050;-71
2022/03/22 04:17:48;;;;;;;24.88;14.55;;;1.50;99.90;;;0.78;100.00;98936.22;5017856;28;20054;-72
2022/03/22 04:20:17;;;;;;;23.42;15.80;;;1.60;99.90;;;0.70;100.00;98930.06;5002372;28;20046;-72
2022/03/22 04:23:02;;;;;;;23.75;15.43;;;1.50;99.90;;;0.77;100.00;98931.91;5003505;28;20128;-71
2022/03/22 04:25:46;;;;;;;24.90;15.80;;;1.50;99.90;;;0.62;100.00;98935.91;5001353;28;20069;-71
2022/03/22 04:34:02;;;;;;;28.13;19.25;;;1.20;99.90;;;0.56;100.00;98935.78;5006652;28;20096;-72
2022/03/22 04:36:29;;;;;;;26.67;19.48;;;1.20;99.90;;;0.54;100.00;98934.03;5000394;28;20140;-72
2022/03/22 04:38:56;;;;;;;25.83;19.23;;;1.30;99.90;;;0.53;100.00;98935.75;4996301;28;20484;-72
2022/03/22 04:41:24;;;;;;;28.95;17.92;;;1.30;99.90;;;0.51;100.00;98932.28;5000426;28;20696;-73
2022/03/22 04:43:51;;;;;;;26.60;18.65;;;1.30;99.90;;;0.38;100.00;98932.88;5003643;28;20658;-72
2022/03/22 04:46:19;;;;;;;25.90;18.23;;;1.30;99.90;;;0.43;100.00;98936.38;4997684;28;20416;-72
2022/03/22 04:48:47;;;;;;;24.88;17.52;;;1.20;99.90;;;0.39;100.00;98934.63;4999735;28;20050;-72
2022/03/22 04:56:47;;;;;;;26.25;18.50;;;;;;;0.26;100.00;98942.88;5005728;28;20499;-71
2022/03/22 04:59:19;;;;;;;24.45;17.45;;;;;;;0.26;100.00;98933.50;5002595;28;20451;-72
2022/03/22 05:01:46;;;;;;;23.30;16.58;;;;;;;0.20;100.00;98938.47;5006186;28;20141;-72
2022/03/22 05:04:13;;;;;;;24.83;17.25;;;1.30;99.90;;;0.22;100.00;98939.38;5002264;28;20056;-72
2022/03/22 05:06:41;;;;;;;24.05;16.42;;;1.10;99.90;;;0.18;100.00;98938.47;4998614;28;20137;-72
2022/03/22 05:09:08;;;;;;;22.83;16.50;;;1.00;99.90;;;0.27;100.00;98947.97;4998863;28;20109;-69
2022/03/22 05:11:35;;;;;;;23.83;16.60;;;0.90;99.90;;;0.16;100.00;98946.91;5004164;28;20142;-71
2022/03/22 05:14:03;;;;;;;24.00;16.75;;;0.90;99.90;;;0.19;100.00;98950.38;5003704;28;20085;-72
2022/03/22 05:16:30;;;;;;;24.20;17.77;;;0.90;99.90;;;0.07;100.00;98951.81;5003056;28;20054;-72
2022/03/22 05:18:58;;;;;;;27.65;17.70;;;0.90;99.90;;;0.03;100.00;98961.09;5001293;28;20060;-72
2022/03/22 05:21:26;;;;;;;23.77;16.85;;;0.80;99.90;;;0.03;100.00;98960.25;5001913;28;20050;-72
2022/03/22 05:23:54;;;;;;;25.08;17.85;;;0.90;99.90;;;0.03;100.00;98956.00;5000162;28;20053;-72
2022/03/22 05:26:22;;;;;;;25.20;18.02;;;0.80;99.90;;;0.05;100.00;98958.59;5001360;28;20054;-71
2022/03/22 05:28:49;;;;;;;24.63;17.17;;;0.90;99.90;;;0.14;100.00;98958.78;5003185;28;20125;-72
2022/03/22 05:31:16;;;;;;;24.27;17.55;;;0.90;99.90;;;-0.19;100.00;98957.22;4982003;28;20081;-72
2022/03/22 05:33:43;;;;;;;24.58;17.40;;;0.80;99.90;;;-0.15;100.00;98960.72;4999989;28;20054;-72
2022/03/22 05:36:11;;;;;;;22.92;16.55;;;0.70;99.90;;;-0.08;100.00;98958.31;5000909;28;20041;-72
2022/03/22 05:38:38;;;;;;;27.27;19.23;;;0.70;99.90;;;0.07;100.00;98962.03;5006702;28;20516;-72
2022/03/22 05:41:07;;;;;;;33.67;21.00;;;0.80;99.90;;;-0.15;100.00;98961.56;5002607;28;20052;-73
2022/03/22 05:43:36;;;;;;;48.50;26.20;;;0.80;99.90;;;-0.27;100.00;98962.16;4988240;28;20129;-72
2022/03/22 05:46:04;;;;;;;54.15;28.27;;;0.70;99.90;;;-0.22;100.00;98959.72;5001723;28;20042;-72
2022/03/22 05:48:31;;;;;;;39.88;22.60;;;0.70;99.90;;;-0.11;100.00;98962.50;5004253;28;20052;-72
2022/03/22 05:50:58;;;;;;;40.30;22.25;;;0.80;99.90;;;-0.03;100.00;98961.81;5002423;28;20077;-72
2022/03/22 05:53:25;;;;;;;33.75;20.80;;;0.80;99.90;;;0.05;100.00;98966.25;5002772;28;20129;-71
2022/03/22 05:55:52;;;;;;;29.77;20.73;;;0.80;99.90;;;0.05;100.00;98963.72;5002982;28;20291;-72
2022/03/22 05:58:19;;;;;;;31.35;19.95;;;0.90;99.90;;;0.19;100.00;98973.38;5004036;28;20625;-72
2022/03/22 06:00:47;;;;;;;33.50;21.52;;;0.90;99.90;;;0.05;100.00;98968.81;5007391;28;20476;-71
2022/03/22 06:03:15;;;;;;;32.65;20.80;;;0.90;99.90;;;0.04;100.00;98977.28;5009912;28;20054;-73
2022/03/22 06:05:42;;;;;;;36.08;21.42;;;0.90;99.90;;;0.08;100.00;98966.31;5001515;28;20448;-72
2022/03/22 06:08:09;;;;;;;36.83;23.10;;;1.00;99.90;;;0.17;100.00;98969.06;5005121;28;20140;-72
2022/03/22 06:10:38;;;;;;;33.30;22.33;;;1.00;99.90;;;0.25;100.00;98971.75;5001406;28;20136;-71
2022/03/22 06:13:05;;;;;;;32.50;21.98;;;1.10;99.90;;;0.41;100.00;98969.56;5006257;28;20412;-72
2022/03/22 06:15:32;;;;;;;32.85;21.13;;;1.20;99.90;;;0.47;100.00;98963.72;5008078;28;20121;-72
2022/03/22 06:18:03;;;;;;;30.25;20.48;;;1.20;99.90;;;0.53;100.00;98965.53;5006189;28;20424;-71
2022/03/22 06:20:36;;;;;;;31.40;20.52;;;1.20;99.90;;;0.46;100.00;98961.13;5001135;28;20081;-73
2022/03/22 06:23:07;;;;;;;37.00;23.65;;;1.20;99.90;;;0.39;100.00;98967.81;5000373;28;20052;-72
2022/03/22 06:25:35;;;;;;;39.92;23.27;;;1.30;99.90;;;0.35;100.00;98966.03;5000479;28;20141;-72
2022/03/22 06:28:04;;;;;;;42.00;26.27;;;1.30;99.90;;;0.41;100.00;98969.56;5016277;28;20093;-72
2022/03/22 06:30:32;;;;;;;53.67;33.08;;;1.30;99.90;;;0.36;100.00;98966.03;5017315;28;20569;-72
2022/03/22 06:33:16;;;;;;;78.78;42.58;;;1.30;99.90;;;0.37;100.00;98959.25;5004873;28;20050;-72
2022/03/22 06:35:45;;;;;;;51.70;30.83;;;1.30;99.90;;;0.55;100.00;98958.78;5002639;28;20169;-72
2022/03/22 06:38:13;;;;;;;57.63;32.00;;;1.40;99.90;;;0.73;100.00;98968.47;5002562;28;20141;-72
2022/03/22 06:40:41;;;;;;;53.50;33.67;;;1.60;99.90;;;0.75;100.00;98964.25;5005410;28;20057;-71
2022/03/22 06:43:12;;;;;;;55.30;31.15;;;1.70;99.90;;;0.45;100.00;98967.94;4992667;28;20092;-71
2022/03/22 06:45:39;;;;;;;53.67;32.28;;;1.80;99.90;;;0.77;100.00;98963.44;5008537;28;20054;-71
2022/03/22 06:48:08;;;;;;;48.35;31.02;;;1.80;99.90;;;0.98;100.00;98969.78;5007505;28;20522;-72
2022/03/22 06:50:39;;;;;;;43.22;28.77;;;1.90;99.90;;;1.15;100.00;98968.38;5001575;28;20084;-72
2022/03/22 06:53:08;;;;;;;41.03;27.45;;;2.10;99.90;;;1.32;100.00;98960.97;5019630;28;20046;-72
2022/03/22 06:55:36;;;;;;;47.63;31.25;;;2.30;99.90;;;1.47;100.00;98960.38;5003599;28;20131;-72
2022/03/22 06:58:05;;;;;;;45.22;29.67;;;2.40;99.90;;;1.60;100.00;98961.44;4991073;28;20054;-73
2022/03/22 07:00:32;;;;;;;49.67;31.50;;;2.50;99.90;;;1.73;100.00;98959.91;4988597;28;20415;-71
2022/03/22 07:03:03;;;;;;;56.00;34.03;;;2.60;99.90;;;1.90;100.00;98960.19;4997762;28;20061;-70
2022/03/22 07:05:31;;;;;;;55.05;34.63;;;2.90;99.90;;;2.03;100.00;98964.59;4999354;28;20046;-71
2022/03/22 07:08:01;;;;;;;59.70;34.97;;;3.10;99.90;;;2.30;100.00;98966.69;5000804;28;20042;-71
2022/03/22 07:10:30;;;;;;;51.75;32.00;;;3.20;99.90;;;2.49;100.00;98968.66;4999980;28;20132;-72
2022/03/22 07:13:04;;;;;;;47.28;29.45;;;3.40;99.90;;;2.61;100.00;98965.34;5000141;28;20494;-70
2022/03/22 07:15:35;;;;;;;44.70;28.88;;;3.60;99.90;;;2.83;100.00;98963.91;5001840;28;20133;-71
2022/03/22 07:18:05;;;;;;;46.50;31.38;;;3.80;99.90;;;3.03;100.00;98963.22;4998340;28;20473;-72
2022/03/22 07:20:33;;;;;;;36.35;25.02;;;4.00;99.90;;;3.24;100.00;98966.00;5001328;28;20133;-71
2022/03/22 07:23:02;;;;;;;29.98;21.80;;;4.20;99.90;;;3.45;100.00;98973.03;4999806;28;20082;-71
2022/03/22 07:25:29;;;;;;;28.08;20.25;;;4.30;99.90;;;3.73;100.00;98974.09;4998426;28;20208;-71
2022/03/22 07:27:56;;;;;;;26.77;18.83;;;4.60;99.90;;;4.07;100.00;98974.31;5001608;28;20484;-70
2022/03/22 07:30:24;;;;;;;28.38;19.52;;;4.90;99.90;;;4.39;100.00;98965.91;5001418;28;20092;-71
2022/03/22 07:32:51;;;;;;;29.73;16.05;;;5.20;99.90;;;4.68;100.00;98968.59;4999202;28;20154;-70
2022/03/22 07:35:19;;;;;;;38.38;21.10;;;5.40;99.90;;;4.95;100.00;98970.41;4999265;28;20145;-71
2022/03/22 07:37:48;;;;;;;76.55;42.53;;;5.70;99.90;;;5.29;100.00;98961.84;5000756;28;20076;-71
2022/03/22 07:40:18;;;;;;;52.40;31.15;;;6.00;99.90;;;5.50;100.00;98964.44;5012808;28;20069;-71
2022/03/22 07:42:48;;;;;;;66.80;39.25;;;6.20;99.90;;;5.50;100.00;98972.19;4999766;28;20061;-71
2022/03/22 07:45:15;;;;;;;29.85;19.58;;;6.40;99.90;;;5.72;100.00;98975.59;5002871;28;20054;-72
2022/03/22 07:47:42;;;;;;;25.25;16.10;;;6.60;99.90;;;5.70;100.00;98966.16;5002160;28;20596;-71
2022/03/22 07:53:00;;;;;;;32.35;16.10;;;6.80;99.90;;;6.06;100.00;98970.44;5003232;28;20116;-71
2022/03/22 07:55:38;;;;;;;25.08;16.95;;;6.90;99.90;;;6.24;100.00;98972.97;4997616;28;20141;-71
2022/03/22 07:58:06;;;;;;;22.25;15.05;;;7.10;99.90;;;6.35;100.00;98967.78;5002148;28;20078;-71
2022/03/22 08:00:37;;;;;;;23.27;14.25;;;7.30;99.90;;;6.57;100.00;98968.56;5002020;28;20077;-71
2022/03/22 08:03:09;;;;;;;23.63;14.95;;;;;;;6.79;100.00;98969.31;5004206;28;20074;-71
2022/03/22 08:05:38;;;;;;;25.38;14.95;;;8.00;99.90;;;7.10;100.00;98974.31;5001867;28;20042;-71
2022/03/22 08:08:06;;;;;;;24.98;15.00;;;8.30;99.90;;;7.73;100.00;98972.13;4997877;28;20142;-71
2022/03/22 08:10:53;;;;;;;26.55;14.80;;;8.70;99.90;;;8.09;100.00;98969.19;4996023;28;20522;-71
2022/03/22 08:13:21;;;;;;;26.92;15.73;;;9.20;99.90;;;8.90;100.00;98970.00;5004666;28;20054;-71
2022/03/22 08:15:48;;;;;;;22.17;14.18;;;9.60;99.60;;;9.21;100.00;98970.38;5002671;28;20096;-71
2022/03/22 08:18:16;;;;;;;20.38;14.00;;;10.00;98.50;;;10.15;100.00;98966.22;5016790;28;20074;-70
2022/03/22 08:20:44;;;;;;;18.90;13.38;;;10.40;97.70;;;11.16;100.00;98971.16;4998448;28;20065;-71
2022/03/22 08:23:11;;;;;;;20.77;13.48;;;10.80;97.10;;;11.38;100.00;98964.56;4996240;28;20077;-71
2022/03/22 08:25:43;;;;;;;19.33;13.75;;;11.20;95.50;;;11.64;100.00;98965.66;4997775;28;20077;-71
2022/03/22 08:28:12;;;;;;;18.92;14.55;;;11.40;92.90;;;11.46;100.00;98957.41;4999740;28;20420;-71
2022/03/22 08:30:40;;;;;;;18.52;13.50;;;11.60;92.30;;;12.09;100.00;98950.66;4998731;28;20138;-71
2022/03/22 08:33:10;;;;;;;20.67;14.73;;;11.90;92.00;;;12.25;100.00;98953.69;4988174;28;20053;-71
2022/03/22 08:35:49;;;;;;;19.05;14.00;;;12.00;90.40;;;12.53;100.00;98950.31;5002341;28;20054;-71
2022/03/22 08:38:23;;;;;;;20.35;13.20;;;12.40;90.80;;;13.16;100.00;98948.47;5003943;28;20117;-70
2022/03/22 08:40:52;;;;;;;19.30;13.63;;;12.60;90.20;;;12.95;99.98;98944.72;5002882;28;20070;-71
2022/03/22 08:43:19;;;;;;;15.93;12.10;;;12.60;88.70;;;13.69;100.00;98945.91;5022997;28;20132;-71
2022/03/22 08:45:46;;;;;;;18.13;12.85;;;12.90;90.40;;;14.29;100.00;98948.19;5001464;28;20224;-70
2022/03/22 08:48:13;;;;;;;19.13;13.23;;;13.30;90.20;;;13.89;100.00;98949.56;4997812;28;20532;-70
2022/03/22 08:50:43;;;;;;;19.70;13.65;;;;;;;13.99;99.06;98943.16;5000438;28;20077;-71
2022/03/22 08:53:14;;;;;;;16.85;13.45;;;13.70;87.20;;;14.75;97.25;98942.16;5005832;28;20042;-71
2022/03/22 08:55:47;;;;;;;19.80;13.63;;;13.80;87.40;;;14.54;96.64;98948.16;5003525;28;20046;-71
2022/03/22 08:58:16;;;;;;;23.23;14.13;;;13.80;86.40;;;13.60;98.39;98951.44;5001880;28;20464;-71
2022/03/22 09:00:45;;;;;;;16.05;12.75;;;13.80;85.30;;;14.62;97.25;98947.00;5003617;28;20152;-70
2022/03/22 09:03:12;;;;;;;20.02;14.13;;;14.00;85.80;;;13.93;96.99;98951.19;5003753;28;20503;-70
2022/03/22 09:08:25;;;;;;;16.25;13.00;;;14.20;84.60;;;14.10;95.02;98943.63;5000906;28;20053;-72
2022/03/22 09:10:52;;;;;;;18.92;13.23;;;14.50;82.50;;;13.94;95.17;98951.13;5008759;28;20124;-72
2022/03/22 09:13:20;;;;;;;19.58;13.75;;;14.20;81.30;;;13.79;93.21;98946.44;5021515;28;20061;-72
2022/03/22 09:15:51;;;;;;;22.08;12.80;;;14.10;80.40;;;13.35;94.79;98943.53;5013181;28;20527;-72
2022/03/22 09:18:21;;;;;;;17.45;12.32;;;14.40;79.70;;;15.11;93.14;98948.66;5007920;28;20058;-71
2022/03/22 09:20:49;;;;;;;17.20;12.43;;;14.60;80.70;;;16.10;89.81;98934.13;5008033;28;20228;-72
2022/03/22 09:23:17;;;;;;;15.82;13.02;;;14.80;80.70;;;16.02;87.44;98946.69;5010676;28;20061;-72
2022/03/22 09:25:45;;;;;;;17.98;12.45;;;15.00;79.20;;;15.35;87.92;98942.47;5008588;28;20129;-72
2022/03/22 09:28:13;;;;;;;20.30;13.00;;;15.30;77.70;;;15.98;87.48;98939.03;5005028;28;20074;-72
2022/03/22 09:30:40;;;;;;;15.20;11.50;;;15.60;77.50;;;16.66;86.09;98932.50;5007032;28;20042;-72
2022/03/22 09:33:11;;;;;;;16.42;12.40;;;15.90;76.80;;;16.64;82.34;98930.88;5002587;28;20092;-72
2022/03/22 09:35:40;;;;;;;17.83;13.60;;;15.90;75.00;;;15.48;85.61;98940.19;5001714;28;20136;-71
2022/03/22 09:38:07;;;;;;;18.92;12.05;;;15.80;74.60;;;15.48;83.48;98937.56;5005499;28;20108;-72
2022/03/22 09:40:34;;;;;;;14.30;11.75;;;15.90;73.20;;;17.05;81.62;98934.22;5000397;28;20054;-72
2022/03/22 09:43:01;;;;;;;18.00;12.55;;;16.00;74.00;;;16.53;81.98;98926.09;5003327;28;20122;-72
2022/03/22 09:45:33;;;;;;;14.70;11.88;;;16.00;74.00;;;16.35;79.20;98924.31;4999772;28;20054;-71
2022/03/22 09:48:01;;;;;;;19.05;12.05;;;16.30;72.10;;;16.88;79.97;98929.78;4999097;28;20050;-71
2022/03/22 09:53:17;;;;;;;19.65;11.93;;;16.60;70.90;;;16.80;81.40;98931.03;4997655;28;20053;-72
2022/03/22 09:55:45;;;;;;;15.52;11.95;;;16.60;72.20;;;16.12;80.36;98928.78;5000953;28;20049;-72
2022/03/22 09:58:13;;;;;;;18.30;12.20;;;16.80;70.50;;;17.27;78.99;98922.72;5001558;28;20121;-72
2022/03/22 10:00:40;;;;;;;16.20;12.45;;;16.80;71.50;;;17.30;79.12;98922.56;4999205;28;20077;-72
2022/03/22 10:03:08;;;;;;;17.25;12.85;;;16.80;71.90;;;16.69;77.48;98931.50;5003833;28;20100;-71
2022/03/22 10:05:35;;;;;;;15.85;12.18;;;16.70;70.70;;;17.25;74.72;98924.56;4996428;28;20433;-71
2022/03/22 10:08:08;;;;;;;19.13;13.15;;;16.60;69.30;;;16.76;82.46;98927.66;4996866;28;20380;-72
2022/03/22 10:10:52;;;;;;;18.10;14.10;;;16.50;73.40;;;14.75;87.57;98933.47;4995758;28;20046;-72
2022/03/22 10:13:19;;;;;;;18.85;13.02;;;15.40;73.30;;;15.60;84.46;98934.47;5003561;28;20508;-72
2022/03/22 10:15:49;;;;;;;18.63;12.82;;;15.40;73.20;;;15.84;81.50;98926.53;4986679;28;20057;-72
2022/03/22 10:18:24;;;;;;;17.08;12.48;;;15.20;73.30;;;16.55;82.10;98923.44;5002396;28;20078;-72
2022/03/22 10:21:03;;;;;;;18.98;12.35;;;15.30;74.70;;;16.42;81.74;98924.00;5021969;28;20137;-73
2022/03/22 10:23:50;;;;;;;19.73;13.55;;;15.20;75.00;;;14.75;86.17;98929.09;5008841;28;20548;-72
2022/03/22 10:26:18;;;;;;;18.95;12.75;;;14.70;74.90;;;14.32;88.63;98930.69;5004616;28;20056;-71
2022/03/22 10:28:52;;;;;;;21.23;13.30;;;14.40;75.60;;;14.16;84.91;98925.16;5005243;28;20065;-71
2022/03/22 10:31:31;;;;;;;19.30;13.30;;;14.20;73.90;;;14.46;87.99;98922.34;5003254;28;20125;-71
2022/03/22 10:34:00;;;;;;;19.20;13.13;;;14.30;75.90;;;13.94;86.38;98922.44;5007430;28;20050;-70
2022/03/22 10:36:27;;;;;;;17.90;12.07;;;14.10;74.50;;;13.87;89.97;98920.09;5003546;28;20086;-71
2022/03/22 10:38:59;;;;;;;18.80;12.93;;;14.10;76.80;;;14.24;86.91;98906.59;5008643;28;20050;-71
2022/03/22 10:41:39;;;;;;;15.80;12.45;;;14.20;75.10;;;14.34;82.53;98909.69;5003316;28;20057;-71
2022/03/22 10:44:13;;;;;;;18.30;12.60;;;14.20;72.30;;;13.49;83.45;98917.00;5006869;28;20089;-70
2022/03/22 10:46:42;;;;;;;21.00;12.10;;;14.10;72.20;;;13.39;83.87;98906.03;5007329;28;20147;-71
2022/03/22 10:49:16;;;;;;;20.70;12.40;;;13.90;72.40;;;13.33;82.92;98909.69;5007995;28;20056;-71